CPX312 Details

Departure: Seattle-Tacoma International Airport (KSEA)
Arrival: Washington Dulles International Airport (KIAD) at N/A
Route: SEA NORMY J90 MWH HLN DPR MCW DBQ JOT J30 APE AIR J162 MGW GIBBZ2
Notes:


Current Weather Information
KSEA 230653Z 03008KT 10SM FEW027 11/07 A3045 RMK AO2 SLP319 T01060067 $
KIAD 230652Z 00000KT 2SM R01R/2200VP6000FT BR SCT000 08/08 A2990 RMK AO2 TWR VIS 10 SLP125 T00830078 $